NKS750 KMCO-KPIT
Flight info
| Callsign | NKS750 |
|---|---|
| Flight time | N/A |
| Altitude | 37000 |
| Route | FATHE4 VIYAP Q69 RICCS LEJOY DEMME5 |
| Aircraft | A20N/M-SDE2E3FGHIRWXY/LB1 |
Departure
| Time | 2026-05-05 17:56 |
|---|---|
| Airport | Orlando International Airport (KMCO) |
Arrival
| Time | N/A |
|---|---|
| Airport | Pittsburgh International Airport (KPIT) |
| Time | Latitude | Longitude | Altitude | Speed | Heading |
|---|---|---|---|---|---|
| 2026-05-05 17:22 | 28.43383 | -81.31618 | 104 ft | 0 kts | 93° |
| 2026-05-05 17:43 | 28.43383 | -81.31622 | 104 ft | 2 kts | 94° |
| 2026-05-05 17:43 | 28.43384 | -81.31639 | 104 ft | 2 kts | 93° |
| 2026-05-05 17:43 | 28.43385 | -81.31656 | 104 ft | 2 kts | 94° |
| 2026-05-05 17:44 | 28.43387 | -81.31673 | 104 ft | 2 kts | 124° |
| 2026-05-05 17:44 | 28.43398 | -81.31683 | 104 ft | 2 kts | 162° |
| 2026-05-05 17:44 | 28.43408 | -81.31685 | 104 ft | 0 kts | 188° |
| 2026-05-05 17:44 | 28.43416 | -81.31683 | 104 ft | 0 kts | 192° |
| 2026-05-05 17:46 | 28.43414 | -81.31683 | 104 ft | 0 kts | 192° |
| 2026-05-05 17:47 | 28.43402 | -81.31686 | 104 ft | 2 kts | 192° |
| 2026-05-05 17:47 | 28.43382 | -81.31691 | 104 ft | 3 kts | 191° |
| 2026-05-05 17:47 | 28.43350 | -81.31697 | 104 ft | 7 kts | 190° |
| 2026-05-05 17:47 | 28.43299 | -81.31721 | 104 ft | 8 kts | 214° |
| 2026-05-05 17:48 | 28.43261 | -81.31764 | 104 ft | 4 kts | 234° |
| 2026-05-05 17:48 | 28.43240 | -81.31799 | 104 ft | 5 kts | 236° |
| 2026-05-05 17:48 | 28.43211 | -81.31836 | 104 ft | 6 kts | 207° |
| 2026-05-05 17:48 | 28.43160 | -81.31840 | 104 ft | 7 kts | 180° |
| 2026-05-05 17:49 | 28.43101 | -81.31840 | 104 ft | 8 kts | 179° |
| 2026-05-05 17:49 | 28.43035 | -81.31838 | 104 ft | 9 kts | 179° |
| 2026-05-05 17:49 | 28.42963 | -81.31838 | 104 ft | 10 kts | 180° |
| 2026-05-05 17:49 | 28.42884 | -81.31838 | 104 ft | 11 kts | 180° |
| 2026-05-05 17:50 | 28.42795 | -81.31836 | 104 ft | 13 kts | 180° |
| 2026-05-05 17:50 | 28.42698 | -81.31835 | 104 ft | 14 kts | 179° |
| 2026-05-05 17:50 | 28.42599 | -81.31834 | 104 ft | 14 kts | 179° |
| 2026-05-05 17:50 | 28.42497 | -81.31833 | 104 ft | 14 kts | 179° |
| 2026-05-05 17:51 | 28.42393 | -81.31832 | 104 ft | 15 kts | 180° |
| 2026-05-05 17:51 | 28.42285 | -81.31832 | 104 ft | 15 kts | 184° |
| 2026-05-05 17:51 | 28.42175 | -81.31857 | 104 ft | 16 kts | 194° |
| 2026-05-05 17:51 | 28.42059 | -81.31878 | 104 ft | 17 kts | 180° |
| 2026-05-05 17:52 | 28.41939 | -81.31877 | 104 ft | 17 kts | 180° |
| 2026-05-05 17:52 | 28.41815 | -81.31876 | 104 ft | 18 kts | 180° |
| 2026-05-05 17:52 | 28.41688 | -81.31875 | 104 ft | 18 kts | 179° |
| 2026-05-05 17:52 | 28.41594 | -81.31876 | 104 ft | 11 kts | 189° |
| 2026-05-05 17:53 | 28.41545 | -81.31940 | 104 ft | 12 kts | 261° |
| 2026-05-05 17:53 | 28.41541 | -81.32037 | 104 ft | 11 kts | 269° |
| 2026-05-05 17:53 | 28.41541 | -81.32079 | 104 ft | 3 kts | 270° |
| 2026-05-05 17:53 | 28.41541 | -81.32114 | 104 ft | 5 kts | 270° |
| 2026-05-05 17:54 | 28.41541 | -81.32160 | 104 ft | 6 kts | 274° |
| 2026-05-05 17:54 | 28.41572 | -81.32192 | 104 ft | 4 kts | 347° |
| 2026-05-05 17:54 | 28.41597 | -81.32194 | 104 ft | 3 kts | 1° |
| 2026-05-05 17:54 | 28.41609 | -81.32194 | 104 ft | 0 kts | 0° |
| 2026-05-05 17:55 | 28.41764 | -81.32196 | 104 ft | 56 kts | 0° |
| 2026-05-05 17:55 | 28.42395 | -81.32203 | 104 ft | 123 kts | 359° |
| 2026-05-05 17:56 | 28.43458 | -81.32217 | 114 ft | 176 kts | 2° |
| 2026-05-05 17:56 | 28.44731 | -81.32232 | 563 ft | 185 kts | 2° |
| 2026-05-05 17:56 | 28.46020 | -81.32243 | 1254 ft | 187 kts | 3° |
| 2026-05-05 17:56 | 28.47284 | -81.32238 | 2006 ft | 185 kts | 3° |
| 2026-05-05 17:57 | 28.48645 | -81.32234 | 2307 ft | 209 kts | 3° |
| 2026-05-05 17:57 | 28.50155 | -81.32194 | 2710 ft | 225 kts | 4° |
| 2026-05-05 17:57 | 28.51785 | -81.32125 | 3158 ft | 243 kts | 2° |
| 2026-05-05 17:57 | 28.53498 | -81.32125 | 3880 ft | 249 kts | 360° |
| 2026-05-05 17:58 | 28.55232 | -81.32184 | 4673 ft | 252 kts | 359° |
| 2026-05-05 17:58 | 28.57047 | -81.32142 | 5256 ft | 266 kts | 2° |
| 2026-05-05 17:58 | 28.58952 | -81.32041 | 5861 ft | 279 kts | 2° |
| 2026-05-05 17:58 | 28.60906 | -81.31919 | 6568 ft | 287 kts | 3° |
| 2026-05-05 17:59 | 28.62900 | -81.31711 | 7387 ft | 290 kts | 4° |
| 2026-05-05 17:59 | 28.64883 | -81.31483 | 8250 ft | 291 kts | 4° |
| 2026-05-05 17:59 | 28.66911 | -81.31214 | 9115 ft | 292 kts | 4° |
| 2026-05-05 17:59 | 28.68930 | -81.30923 | 9959 ft | 293 kts | 5° |
| 2026-05-05 18:00 | 28.70959 | -81.30609 | 10589 ft | 301 kts | 4° |
| 2026-05-05 18:00 | 28.73111 | -81.30293 | 10965 ft | 319 kts | 4° |
| 2026-05-05 18:00 | 28.75369 | -81.29986 | 11415 ft | 332 kts | 4° |
| 2026-05-05 18:00 | 28.77703 | -81.29675 | 12121 ft | 335 kts | 3° |
| 2026-05-05 18:01 | 28.80011 | -81.29370 | 12835 ft | 337 kts | 3° |
| 2026-05-05 18:01 | 28.82366 | -81.29092 | 13521 ft | 339 kts | 0° |
| 2026-05-05 18:01 | 28.84721 | -81.28992 | 14225 ft | 339 kts | 356° |
| 2026-05-05 18:01 | 28.87074 | -81.29093 | 14939 ft | 339 kts | 353° |
| 2026-05-05 18:02 | 28.89450 | -81.29288 | 15602 ft | 341 kts | 352° |
| 2026-05-05 18:02 | 28.91846 | -81.29497 | 16223 ft | 345 kts | 352° |
| 2026-05-05 18:02 | 28.94214 | -81.29703 | 16870 ft | 347 kts | 352° |
| 2026-05-05 18:02 | 28.96651 | -81.29914 | 17526 ft | 348 kts | 352° |
| 2026-05-05 18:03 | 28.99098 | -81.30125 | 18140 ft | 350 kts | 351° |
| 2026-05-05 18:03 | 29.01521 | -81.30373 | 18714 ft | 352 kts | 350° |
| 2026-05-05 18:03 | 29.03994 | -81.30654 | 19263 ft | 355 kts | 349° |
| 2026-05-05 18:03 | 29.06463 | -81.30936 | 19819 ft | 357 kts | 349° |
| 2026-05-05 18:04 | 29.08933 | -81.31214 | 20360 ft | 359 kts | 349° |
| 2026-05-05 18:04 | 29.11449 | -81.31453 | 20877 ft | 363 kts | 351° |
| 2026-05-05 18:04 | 29.13989 | -81.31616 | 21405 ft | 366 kts | 351° |
| 2026-05-05 18:04 | 29.16550 | -81.31770 | 21914 ft | 368 kts | 351° |
| 2026-05-05 18:05 | 29.19129 | -81.31924 | 22396 ft | 371 kts | 351° |
| 2026-05-05 18:05 | 29.21721 | -81.32079 | 22906 ft | 373 kts | 351° |
| 2026-05-05 18:05 | 29.24338 | -81.32237 | 23437 ft | 375 kts | 350° |
| 2026-05-05 18:05 | 29.26951 | -81.32394 | 23973 ft | 377 kts | 350° |
| 2026-05-05 18:06 | 29.29557 | -81.32553 | 24471 ft | 379 kts | 351° |
| 2026-05-05 18:06 | 29.30440 | -81.32606 | 24645 ft | 379 kts | 351° |
| 2026-05-05 18:06 | 29.34844 | -81.32870 | 25479 ft | 382 kts | 351° |
| 2026-05-05 18:06 | 29.37519 | -81.33033 | 25977 ft | 384 kts | 351° |
| 2026-05-05 18:07 | 29.40210 | -81.33195 | 26457 ft | 385 kts | 351° |
| 2026-05-05 18:07 | 29.42899 | -81.33357 | 26928 ft | 387 kts | 351° |
| 2026-05-05 18:07 | 29.45588 | -81.33518 | 27381 ft | 388 kts | 351° |
| 2026-05-05 18:07 | 29.48296 | -81.33680 | 27817 ft | 389 kts | 351° |
| 2026-05-05 18:08 | 29.50991 | -81.33844 | 28217 ft | 391 kts | 351° |
| 2026-05-05 18:08 | 29.53725 | -81.34010 | 28622 ft | 392 kts | 351° |
| 2026-05-05 18:08 | 29.56448 | -81.34173 | 28962 ft | 394 kts | 351° |
| 2026-05-05 18:08 | 29.59209 | -81.34340 | 29272 ft | 397 kts | 351° |
| 2026-05-05 18:09 | 29.61971 | -81.34505 | 29653 ft | 397 kts | 351° |
| 2026-05-05 18:09 | 29.64722 | -81.34666 | 30119 ft | 395 kts | 351° |
| 2026-05-05 18:09 | 29.67475 | -81.34824 | 30618 ft | 391 kts | 351° |
| 2026-05-05 18:09 | 29.70182 | -81.34977 | 31106 ft | 387 kts | 350° |
| 2026-05-05 18:10 | 29.72859 | -81.35128 | 31543 ft | 384 kts | 350° |
| 2026-05-05 18:10 | 29.75524 | -81.35280 | 31968 ft | 381 kts | 349° |
| 2026-05-05 18:10 | 29.78168 | -81.35432 | 32362 ft | 379 kts | 349° |
| 2026-05-05 18:10 | 29.80810 | -81.35583 | 32739 ft | 377 kts | 349° |
| 2026-05-05 18:11 | 29.83421 | -81.35733 | 33104 ft | 375 kts | 349° |
| 2026-05-05 18:11 | 29.86018 | -81.35883 | 33505 ft | 373 kts | 349° |
| 2026-05-05 18:11 | 29.88637 | -81.36035 | 33917 ft | 370 kts | 349° |
| 2026-05-05 18:11 | 29.91196 | -81.36182 | 34298 ft | 368 kts | 349° |
| 2026-05-05 18:12 | 29.93770 | -81.36330 | 34640 ft | 367 kts | 348° |
| 2026-05-05 18:12 | 29.96314 | -81.36477 | 34939 ft | 366 kts | 348° |
| 2026-05-05 18:12 | 29.98836 | -81.36623 | 35237 ft | 365 kts | 348° |
| 2026-05-05 18:12 | 30.01389 | -81.36771 | 35521 ft | 364 kts | 348° |
| 2026-05-05 18:13 | 30.03911 | -81.36918 | 35725 ft | 364 kts | 348° |
| 2026-05-05 18:13 | 30.06445 | -81.37067 | 35933 ft | 365 kts | 348° |
| 2026-05-05 18:13 | 30.09003 | -81.37214 | 36134 ft | 365 kts | 348° |
| 2026-05-05 18:13 | 30.11559 | -81.37362 | 36299 ft | 366 kts | 348° |
| 2026-05-05 18:14 | 30.14109 | -81.37510 | 36479 ft | 367 kts | 348° |
| 2026-05-05 18:14 | 30.16650 | -81.37656 | 36661 ft | 368 kts | 348° |
| 2026-05-05 18:14 | 30.19229 | -81.37804 | 36826 ft | 368 kts | 348° |
| 2026-05-05 18:14 | 30.21797 | -81.37956 | 36984 ft | 369 kts | 348° |
| 2026-05-05 18:15 | 30.24351 | -81.38101 | 36982 ft | 369 kts | 348° |
| 2026-05-05 18:15 | 30.29484 | -81.38397 | 36988 ft | 369 kts | 348° |
| 2026-05-05 18:16 | 30.34621 | -81.38693 | 36992 ft | 369 kts | 348° |
| 2026-05-05 18:16 | 30.39790 | -81.38993 | 36990 ft | 369 kts | 348° |
| 2026-05-05 18:17 | 30.44909 | -81.39289 | 36993 ft | 368 kts | 348° |
| 2026-05-05 18:17 | 30.50023 | -81.39571 | 36987 ft | 369 kts | 348° |
| 2026-05-05 18:18 | 30.55178 | -81.39841 | 36985 ft | 370 kts | 348° |
| 2026-05-05 18:18 | 30.60320 | -81.40114 | 36987 ft | 370 kts | 348° |
| 2026-05-05 18:19 | 30.65480 | -81.40387 | 36986 ft | 369 kts | 348° |
| 2026-05-05 18:19 | 30.70607 | -81.40657 | 36989 ft | 368 kts | 348° |
| 2026-05-05 18:20 | 30.75722 | -81.40927 | 36987 ft | 367 kts | 348° |
| 2026-05-05 18:20 | 30.80855 | -81.41200 | 36980 ft | 370 kts | 347° |
| 2026-05-05 18:21 | 30.85970 | -81.41474 | 36975 ft | 369 kts | 348° |
| 2026-05-05 18:21 | 30.91131 | -81.41749 | 36975 ft | 368 kts | 348° |
| 2026-05-05 18:22 | 30.96258 | -81.42021 | 36972 ft | 368 kts | 348° |
| 2026-05-05 18:22 | 31.01372 | -81.42294 | 36976 ft | 369 kts | 348° |
| 2026-05-05 18:23 | 31.06539 | -81.42570 | 36981 ft | 369 kts | 348° |
| 2026-05-05 18:23 | 31.11699 | -81.42842 | 36984 ft | 369 kts | 347° |
| 2026-05-05 18:24 | 31.16827 | -81.43117 | 36987 ft | 368 kts | 347° |
| 2026-05-05 18:24 | 31.21979 | -81.43395 | 36984 ft | 368 kts | 348° |
| 2026-05-05 18:25 | 31.27124 | -81.43591 | 36982 ft | 370 kts | 349° |
| 2026-05-05 18:25 | 31.32303 | -81.43655 | 36985 ft | 370 kts | 349° |
| 2026-05-05 18:26 | 31.37482 | -81.43712 | 36984 ft | 370 kts | 349° |
| 2026-05-05 18:26 | 31.42670 | -81.43571 | 36977 ft | 376 kts | 353° |
| 2026-05-05 18:27 | 31.47926 | -81.42818 | 36973 ft | 385 kts | 359° |
| 2026-05-05 18:27 | 31.53203 | -81.41409 | 36972 ft | 392 kts | 4° |
| 2026-05-05 18:28 | 31.61073 | -81.38316 | 36972 ft | 397 kts | 7° |
| 2026-05-05 18:28 | 31.66301 | -81.36165 | 36965 ft | 398 kts | 7° |
| 2026-05-05 18:29 | 31.71511 | -81.34019 | 36974 ft | 398 kts | 7° |
| 2026-05-05 18:29 | 31.76748 | -81.31858 | 36971 ft | 398 kts | 7° |
| 2026-05-05 18:30 | 31.81981 | -81.29696 | 36974 ft | 399 kts | 7° |
| 2026-05-05 18:30 | 31.87229 | -81.27528 | 36980 ft | 396 kts | 7° |
| 2026-05-05 18:31 | 31.92456 | -81.25523 | 36986 ft | 390 kts | 3° |
| 2026-05-05 18:31 | 31.97734 | -81.24162 | 36983 ft | 382 kts | 358° |
| 2026-05-05 18:32 | 32.02992 | -81.23462 | 36983 ft | 374 kts | 352° |
| 2026-05-05 18:32 | 32.08241 | -81.23171 | 36992 ft | 374 kts | 352° |
| 2026-05-05 18:33 | 32.13532 | -81.22904 | 36988 ft | 371 kts | 352° |
| 2026-05-05 18:33 | 32.18724 | -81.22646 | 36983 ft | 373 kts | 351° |
| 2026-05-05 18:34 | 32.23930 | -81.22388 | 36991 ft | 372 kts | 352° |
| 2026-05-05 18:34 | 32.29124 | -81.22128 | 36984 ft | 372 kts | 351° |
| 2026-05-05 18:35 | 32.34311 | -81.21872 | 36986 ft | 373 kts | 352° |
| 2026-05-05 18:35 | 32.39508 | -81.21607 | 36972 ft | 373 kts | 351° |
| 2026-05-05 18:36 | 32.44730 | -81.21349 | 36972 ft | 373 kts | 352° |
| 2026-05-05 18:36 | 32.49950 | -81.20744 | 36975 ft | 380 kts | 358° |
| 2026-05-05 18:37 | 32.55187 | -81.19614 | 36959 ft | 383 kts | 359° |
| 2026-05-05 18:37 | 32.60440 | -81.18410 | 36955 ft | 382 kts | 359° |
| 2026-05-05 18:38 | 32.65687 | -81.17203 | 36957 ft | 385 kts | 359° |
| 2026-05-05 18:38 | 32.70948 | -81.15990 | 36949 ft | 382 kts | 359° |
| 2026-05-05 18:39 | 32.76162 | -81.14786 | 36955 ft | 382 kts | 359° |
| 2026-05-05 18:39 | 32.81416 | -81.13574 | 36955 ft | 383 kts | 359° |
| 2026-05-05 18:40 | 32.86664 | -81.12360 | 36947 ft | 382 kts | 359° |
| 2026-05-05 18:40 | 32.91911 | -81.11143 | 36957 ft | 383 kts | 360° |
| 2026-05-05 18:41 | 32.97156 | -81.09924 | 36952 ft | 383 kts | 359° |
| 2026-05-05 18:41 | 33.02362 | -81.08716 | 36949 ft | 382 kts | 359° |
| 2026-05-05 18:42 | 33.07623 | -81.07496 | 36947 ft | 382 kts | 360° |
| 2026-05-05 18:42 | 33.12891 | -81.06267 | 36946 ft | 382 kts | 359° |
| 2026-05-05 18:43 | 33.18153 | -81.05044 | 36946 ft | 381 kts | 360° |
| 2026-05-05 18:43 | 33.23391 | -81.03820 | 36952 ft | 383 kts | 360° |
| 2026-05-05 18:44 | 33.28629 | -81.02597 | 36954 ft | 382 kts | 360° |
| 2026-05-05 18:44 | 33.33865 | -81.01370 | 36959 ft | 382 kts | 0° |
| 2026-05-05 18:45 | 33.39053 | -81.00153 | 36964 ft | 382 kts | 360° |
| 2026-05-05 18:45 | 33.44325 | -80.98917 | 36967 ft | 381 kts | 359° |
| 2026-05-05 18:46 | 33.49525 | -80.97696 | 36967 ft | 383 kts | 360° |
| 2026-05-05 18:46 | 33.54781 | -80.96462 | 36968 ft | 382 kts | 360° |
| 2026-05-05 18:47 | 33.60000 | -80.95232 | 36966 ft | 383 kts | 360° |
| 2026-05-05 18:47 | 33.65244 | -80.93996 | 36965 ft | 382 kts | 360° |
| 2026-05-05 18:48 | 33.70466 | -80.92763 | 36960 ft | 383 kts | 0° |
| 2026-05-05 18:48 | 33.75682 | -80.91528 | 36965 ft | 381 kts | 360° |
| 2026-05-05 18:49 | 33.80944 | -80.90283 | 36968 ft | 383 kts | 360° |
| 2026-05-05 18:49 | 33.86173 | -80.89104 | 36967 ft | 380 kts | 358° |
| 2026-05-05 18:50 | 33.91447 | -80.88152 | 36967 ft | 378 kts | 358° |
| 2026-05-05 18:50 | 33.96635 | -80.87216 | 36958 ft | 378 kts | 358° |
| 2026-05-05 18:51 | 34.01855 | -80.86282 | 36964 ft | 377 kts | 358° |
| 2026-05-05 18:51 | 34.07059 | -80.85342 | 36957 ft | 377 kts | 358° |
| 2026-05-05 18:52 | 34.12312 | -80.84390 | 36957 ft | 376 kts | 358° |
| 2026-05-05 18:52 | 34.17419 | -80.83470 | 36959 ft | 375 kts | 358° |
| 2026-05-05 18:53 | 34.22536 | -80.82549 | 36954 ft | 376 kts | 358° |
| 2026-05-05 18:53 | 34.27720 | -80.81612 | 36949 ft | 377 kts | 358° |
| 2026-05-05 18:54 | 34.32941 | -80.80666 | 36945 ft | 377 kts | 358° |
| 2026-05-05 18:54 | 34.38124 | -80.79727 | 36948 ft | 376 kts | 358° |
| 2026-05-05 18:55 | 34.43301 | -80.78783 | 36939 ft | 376 kts | 358° |
| 2026-05-05 18:55 | 34.48487 | -80.77840 | 36947 ft | 377 kts | 358° |
| 2026-05-05 18:56 | 34.53705 | -80.76891 | 36949 ft | 377 kts | 358° |
| 2026-05-05 18:56 | 34.58911 | -80.75939 | 36955 ft | 379 kts | 358° |
| 2026-05-05 18:57 | 34.64133 | -80.74987 | 36955 ft | 377 kts | 358° |
| 2026-05-05 18:57 | 34.69346 | -80.74033 | 36951 ft | 379 kts | 358° |
| 2026-05-05 18:58 | 34.74569 | -80.73079 | 36951 ft | 378 kts | 359° |
| 2026-05-05 18:58 | 34.79829 | -80.72111 | 36953 ft | 377 kts | 358° |
| 2026-05-05 18:59 | 34.85030 | -80.71157 | 36951 ft | 377 kts | 358° |
| 2026-05-05 18:59 | 34.90237 | -80.70197 | 36949 ft | 377 kts | 359° |
| 2026-05-05 19:00 | 34.95453 | -80.69240 | 36954 ft | 377 kts | 358° |
| 2026-05-05 19:00 | 35.00695 | -80.68273 | 36955 ft | 379 kts | 358° |
| 2026-05-05 19:01 | 35.05906 | -80.67313 | 36956 ft | 376 kts | 358° |
| 2026-05-05 19:01 | 35.11145 | -80.66342 | 36959 ft | 378 kts | 359° |
| 2026-05-05 19:02 | 35.16437 | -80.65365 | 36957 ft | 378 kts | 359° |
| 2026-05-05 19:02 | 35.21646 | -80.64399 | 36959 ft | 377 kts | 358° |
| 2026-05-05 19:03 | 35.26879 | -80.63429 | 36953 ft | 379 kts | 358° |
| 2026-05-05 19:03 | 35.32129 | -80.62453 | 36958 ft | 379 kts | 358° |
| 2026-05-05 19:04 | 35.37364 | -80.61477 | 36956 ft | 379 kts | 358° |
| 2026-05-05 19:04 | 35.42613 | -80.60499 | 36958 ft | 379 kts | 358° |
| 2026-05-05 19:05 | 35.47872 | -80.59520 | 36955 ft | 382 kts | 359° |
| 2026-05-05 19:05 | 35.53179 | -80.58530 | 36956 ft | 385 kts | 358° |
| 2026-05-05 19:06 | 35.58534 | -80.57531 | 36953 ft | 387 kts | 359° |
| 2026-05-05 19:06 | 35.63851 | -80.56531 | 36950 ft | 387 kts | 359° |
| 2026-05-05 19:07 | 35.68304 | -80.55698 | 36943 ft | 387 kts | 359° |
| 2026-05-05 19:07 | 35.74511 | -80.54532 | 36941 ft | 388 kts | 359° |
| 2026-05-05 19:08 | 35.79850 | -80.53528 | 36940 ft | 387 kts | 359° |
| 2026-05-05 19:08 | 35.85175 | -80.52525 | 36929 ft | 388 kts | 359° |
| 2026-05-05 19:09 | 35.90528 | -80.51517 | 36922 ft | 388 kts | 359° |
| 2026-05-05 19:09 | 35.95866 | -80.50508 | 36923 ft | 389 kts | 359° |
| 2026-05-05 19:10 | 36.01221 | -80.49496 | 36987 ft | 389 kts | 359° |
| 2026-05-05 19:10 | 36.06554 | -80.48489 | 37004 ft | 388 kts | 359° |
| 2026-05-05 19:11 | 36.11917 | -80.47469 | 37011 ft | 389 kts | 359° |
| 2026-05-05 19:11 | 36.17254 | -80.46456 | 37008 ft | 389 kts | 359° |
| 2026-05-05 19:12 | 36.22647 | -80.45431 | 36998 ft | 391 kts | 359° |
| 2026-05-05 19:12 | 36.28012 | -80.44407 | 36998 ft | 391 kts | 359° |
| 2026-05-05 19:13 | 36.33378 | -80.43382 | 37007 ft | 391 kts | 359° |
| 2026-05-05 19:13 | 36.38765 | -80.42352 | 37015 ft | 393 kts | 359° |
| 2026-05-05 19:14 | 36.44168 | -80.41299 | 37011 ft | 395 kts | 359° |
| 2026-05-05 19:14 | 36.49613 | -80.40187 | 37024 ft | 395 kts | 359° |
| 2026-05-05 19:15 | 36.54993 | -80.39089 | 37017 ft | 395 kts | 359° |
| 2026-05-05 19:15 | 36.60502 | -80.37968 | 37016 ft | 402 kts | 360° |
| 2026-05-05 19:16 | 36.66070 | -80.36830 | 37021 ft | 410 kts | 360° |
| 2026-05-05 19:16 | 36.71715 | -80.35674 | 37019 ft | 413 kts | 360° |
| 2026-05-05 19:17 | 36.77368 | -80.34721 | 37017 ft | 411 kts | 358° |
| 2026-05-05 19:17 | 36.83078 | -80.33917 | 37030 ft | 412 kts | 358° |
| 2026-05-05 19:18 | 36.88805 | -80.33109 | 37022 ft | 412 kts | 358° |
| 2026-05-05 19:18 | 36.94511 | -80.32301 | 37026 ft | 413 kts | 358° |
| 2026-05-05 19:19 | 37.00206 | -80.31490 | 37037 ft | 412 kts | 358° |
| 2026-05-05 19:19 | 37.05935 | -80.30675 | 37025 ft | 413 kts | 358° |
| 2026-05-05 19:20 | 37.11659 | -80.29857 | 37029 ft | 413 kts | 358° |
| 2026-05-05 19:20 | 37.17358 | -80.29041 | 37040 ft | 413 kts | 358° |
| 2026-05-05 19:21 | 37.23079 | -80.28220 | 37039 ft | 413 kts | 358° |
| 2026-05-05 19:21 | 37.28805 | -80.27400 | 37032 ft | 414 kts | 358° |
| 2026-05-05 19:22 | 37.34529 | -80.26576 | 37023 ft | 415 kts | 358° |
| 2026-05-05 19:22 | 37.40264 | -80.25753 | 37012 ft | 414 kts | 358° |
| 2026-05-05 19:23 | 37.45967 | -80.24927 | 37004 ft | 414 kts | 358° |
| 2026-05-05 19:23 | 37.51716 | -80.24099 | 37003 ft | 414 kts | 358° |
| 2026-05-05 19:24 | 37.57419 | -80.23273 | 36998 ft | 414 kts | 358° |
| 2026-05-05 19:24 | 37.63159 | -80.22441 | 36994 ft | 414 kts | 358° |
| 2026-05-05 19:25 | 37.68862 | -80.21602 | 36997 ft | 416 kts | 357° |
| 2026-05-05 19:25 | 37.74611 | -80.20750 | 37002 ft | 415 kts | 358° |
| 2026-05-05 19:26 | 37.80326 | -80.19897 | 36999 ft | 415 kts | 358° |
| 2026-05-05 19:26 | 37.86058 | -80.19039 | 36998 ft | 415 kts | 358° |
| 2026-05-05 19:27 | 37.91801 | -80.18179 | 37001 ft | 415 kts | 357° |
| 2026-05-05 19:27 | 37.97551 | -80.17319 | 37005 ft | 416 kts | 358° |
| 2026-05-05 19:28 | 38.03296 | -80.16455 | 37015 ft | 416 kts | 358° |
| 2026-05-05 19:28 | 38.09062 | -80.15588 | 37013 ft | 416 kts | 358° |
| 2026-05-05 19:29 | 38.14778 | -80.14728 | 37005 ft | 416 kts | 358° |
| 2026-05-05 19:29 | 38.20528 | -80.13860 | 37007 ft | 415 kts | 358° |
| 2026-05-05 19:30 | 38.26269 | -80.12991 | 37014 ft | 416 kts | 358° |
| 2026-05-05 19:30 | 38.32027 | -80.12120 | 37007 ft | 416 kts | 358° |
| 2026-05-05 19:31 | 38.37738 | -80.11392 | 37004 ft | 413 kts | 354° |
| 2026-05-05 19:31 | 38.43490 | -80.11056 | 36995 ft | 414 kts | 354° |
| 2026-05-05 19:32 | 38.49218 | -80.10753 | 36988 ft | 413 kts | 353° |
| 2026-05-05 19:32 | 38.54993 | -80.10439 | 36986 ft | 414 kts | 354° |
| 2026-05-05 19:33 | 38.60753 | -80.10121 | 36903 ft | 415 kts | 354° |
| 2026-05-05 19:33 | 38.63596 | -80.09965 | 36634 ft | 413 kts | 354° |
| 2026-05-05 19:33 | 38.66486 | -80.09802 | 36368 ft | 410 kts | 353° |
| 2026-05-05 19:34 | 38.69322 | -80.09644 | 36114 ft | 409 kts | 353° |
| 2026-05-05 19:34 | 38.72166 | -80.09487 | 35840 ft | 408 kts | 353° |
| 2026-05-05 19:34 | 38.74982 | -80.09334 | 35587 ft | 410 kts | 353° |
| 2026-05-05 19:35 | 38.80688 | -80.09023 | 35068 ft | 413 kts | 353° |
| 2026-05-05 19:35 | 38.83572 | -80.08850 | 34796 ft | 417 kts | 355° |
| 2026-05-05 19:35 | 38.86488 | -80.08504 | 34540 ft | 422 kts | 358° |
| 2026-05-05 19:35 | 38.89400 | -80.07918 | 34283 ft | 429 kts | 2° |
| 2026-05-05 19:36 | 38.92329 | -80.07087 | 34014 ft | 435 kts | 6° |
| 2026-05-05 19:36 | 38.95251 | -80.05996 | 33747 ft | 441 kts | 9° |
| 2026-05-05 19:36 | 38.98163 | -80.04636 | 33480 ft | 447 kts | 14° |
| 2026-05-05 19:36 | 39.01041 | -80.03015 | 33208 ft | 452 kts | 17° |
| 2026-05-05 19:37 | 39.03900 | -80.01283 | 32938 ft | 455 kts | 17° |
| 2026-05-05 19:37 | 39.06732 | -79.99541 | 32677 ft | 454 kts | 18° |
| 2026-05-05 19:37 | 39.09585 | -79.97782 | 32345 ft | 455 kts | 18° |
| 2026-05-05 19:37 | 39.12452 | -79.96019 | 31836 ft | 457 kts | 18° |
| 2026-05-05 19:38 | 39.15322 | -79.94260 | 31136 ft | 458 kts | 18° |
| 2026-05-05 19:38 | 39.18184 | -79.92506 | 30588 ft | 453 kts | 19° |
| 2026-05-05 19:38 | 39.21026 | -79.90762 | 30096 ft | 450 kts | 19° |
| 2026-05-05 19:38 | 39.23805 | -79.89053 | 29634 ft | 446 kts | 19° |
| 2026-05-05 19:39 | 39.26601 | -79.87333 | 29147 ft | 442 kts | 19° |
| 2026-05-05 19:39 | 39.29365 | -79.85634 | 28670 ft | 438 kts | 20° |
| 2026-05-05 19:39 | 39.32073 | -79.83970 | 28203 ft | 434 kts | 20° |
| 2026-05-05 19:39 | 39.34817 | -79.82281 | 27722 ft | 431 kts | 20° |
| 2026-05-05 19:40 | 39.37477 | -79.80644 | 27245 ft | 428 kts | 20° |
| 2026-05-05 19:40 | 39.40149 | -79.78996 | 26769 ft | 425 kts | 20° |
| 2026-05-05 19:40 | 39.42807 | -79.77357 | 26293 ft | 423 kts | 21° |
| 2026-05-05 19:40 | 39.45464 | -79.75720 | 25823 ft | 420 kts | 21° |
| 2026-05-05 19:41 | 39.48090 | -79.74097 | 25350 ft | 418 kts | 21° |
| 2026-05-05 19:41 | 39.50698 | -79.72483 | 24882 ft | 416 kts | 22° |
| 2026-05-05 19:41 | 39.53303 | -79.70874 | 24401 ft | 414 kts | 22° |
| 2026-05-05 19:41 | 39.55887 | -79.69271 | 23926 ft | 412 kts | 22° |
| 2026-05-05 19:42 | 39.58454 | -79.67680 | 23455 ft | 410 kts | 22° |
| 2026-05-05 19:42 | 39.60999 | -79.66099 | 22989 ft | 408 kts | 22° |
| 2026-05-05 19:42 | 39.63554 | -79.64507 | 22521 ft | 406 kts | 23° |
| 2026-05-05 19:42 | 39.66093 | -79.62926 | 22054 ft | 404 kts | 22° |
| 2026-05-05 19:43 | 39.68612 | -79.61356 | 21586 ft | 402 kts | 22° |
| 2026-05-05 19:43 | 39.71127 | -79.59791 | 21121 ft | 401 kts | 22° |
| 2026-05-05 19:43 | 39.73663 | -79.58212 | 20642 ft | 399 kts | 22° |
| 2026-05-05 19:43 | 39.76149 | -79.56658 | 20177 ft | 397 kts | 22° |
| 2026-05-05 19:44 | 39.78628 | -79.55110 | 19708 ft | 396 kts | 22° |
| 2026-05-05 19:44 | 39.81106 | -79.53563 | 19233 ft | 394 kts | 22° |
| 2026-05-05 19:44 | 39.83552 | -79.52033 | 18767 ft | 393 kts | 22° |
| 2026-05-05 19:44 | 39.86000 | -79.50501 | 18307 ft | 391 kts | 22° |
| 2026-05-05 19:45 | 39.88443 | -79.48974 | 17835 ft | 390 kts | 22° |
| 2026-05-05 19:45 | 39.90907 | -79.47428 | 17365 ft | 388 kts | 22° |
| 2026-05-05 19:45 | 39.93312 | -79.45918 | 16899 ft | 387 kts | 21° |
| 2026-05-05 19:45 | 39.95729 | -79.44402 | 16429 ft | 386 kts | 21° |
| 2026-05-05 19:46 | 39.98253 | -79.43288 | 15912 ft | 376 kts | 1° |
| 2026-05-05 19:46 | 40.00754 | -79.43551 | 15451 ft | 358 kts | 335° |
| 2026-05-05 19:46 | 40.02867 | -79.45104 | 14975 ft | 341 kts | 312° |
| 2026-05-05 19:46 | 40.04408 | -79.47360 | 14565 ft | 331 kts | 303° |
| 2026-05-05 19:47 | 40.05848 | -79.49709 | 14136 ft | 329 kts | 302° |
| 2026-05-05 19:47 | 40.07284 | -79.52015 | 13709 ft | 328 kts | 303° |
| 2026-05-05 19:47 | 40.08741 | -79.54305 | 13277 ft | 326 kts | 303° |
| 2026-05-05 19:47 | 40.10178 | -79.56536 | 12847 ft | 324 kts | 304° |
| 2026-05-05 19:48 | 40.11637 | -79.58788 | 12408 ft | 322 kts | 304° |
| 2026-05-05 19:48 | 40.13080 | -79.61018 | 11962 ft | 320 kts | 303° |
| 2026-05-05 19:48 | 40.14475 | -79.63261 | 11495 ft | 317 kts | 303° |
| 2026-05-05 19:48 | 40.15852 | -79.65506 | 11028 ft | 316 kts | 302° |
| 2026-05-05 19:49 | 40.17229 | -79.67750 | 10561 ft | 314 kts | 303° |
| 2026-05-05 19:49 | 40.18135 | -79.69235 | 10256 ft | 308 kts | 301° |
| 2026-05-05 19:49 | 40.19629 | -79.72167 | 10004 ft | 273 kts | 293° |
| 2026-05-05 19:49 | 40.20468 | -79.74336 | 10000 ft | 266 kts | 289° |
| 2026-05-05 19:50 | 40.21216 | -79.76522 | 9677 ft | 259 kts | 288° |
| 2026-05-05 19:50 | 40.21977 | -79.78662 | 8922 ft | 263 kts | 295° |
| 2026-05-05 19:50 | 40.23189 | -79.80466 | 8152 ft | 275 kts | 316° |
| 2026-05-05 19:50 | 40.24918 | -79.81679 | 7431 ft | 286 kts | 336° |
| 2026-05-05 19:51 | 40.26874 | -79.82198 | 6738 ft | 290 kts | 345° |
| 2026-05-05 19:51 | 40.28869 | -79.82577 | 6226 ft | 288 kts | 346° |
| 2026-05-05 19:51 | 40.30819 | -79.82934 | 5999 ft | 277 kts | 346° |
| 2026-05-05 19:51 | 40.32669 | -79.83342 | 5990 ft | 259 kts | 341° |
| 2026-05-05 19:52 | 40.34421 | -79.83898 | 5994 ft | 255 kts | 338° |
| 2026-05-05 19:52 | 40.36140 | -79.84485 | 5998 ft | 255 kts | 338° |
| 2026-05-05 19:52 | 40.37824 | -79.85047 | 5952 ft | 243 kts | 339° |
| 2026-05-05 19:52 | 40.39407 | -79.85556 | 5778 ft | 229 kts | 338° |
| 2026-05-05 19:53 | 40.40953 | -79.86050 | 5569 ft | 225 kts | 338° |
| 2026-05-05 19:53 | 40.42474 | -79.86543 | 5330 ft | 223 kts | 339° |
| 2026-05-05 19:53 | 40.43985 | -79.87026 | 5078 ft | 222 kts | 339° |
| 2026-05-05 19:53 | 40.45479 | -79.87525 | 4823 ft | 219 kts | 332° |
| 2026-05-05 19:54 | 40.46737 | -79.88524 | 4550 ft | 205 kts | 305° |
| 2026-05-05 19:54 | 40.47429 | -79.90047 | 4283 ft | 192 kts | 280° |
| 2026-05-05 19:54 | 40.47697 | -79.91736 | 4057 ft | 187 kts | 271° |
| 2026-05-05 19:54 | 40.47824 | -79.93432 | 4075 ft | 186 kts | 270° |
| 2026-05-05 19:55 | 40.47912 | -79.95132 | 4060 ft | 186 kts | 268° |
| 2026-05-05 19:55 | 40.47976 | -79.96828 | 4015 ft | 186 kts | 268° |
| 2026-05-05 19:55 | 40.48026 | -79.98550 | 4000 ft | 186 kts | 267° |
| 2026-05-05 19:55 | 40.48068 | -80.00257 | 3992 ft | 186 kts | 267° |
| 2026-05-05 19:56 | 40.48106 | -80.01945 | 3840 ft | 186 kts | 267° |
| 2026-05-05 19:56 | 40.48143 | -80.03641 | 3606 ft | 186 kts | 267° |
| 2026-05-05 19:56 | 40.48182 | -80.05338 | 3375 ft | 186 kts | 268° |
| 2026-05-05 19:56 | 40.48221 | -80.07044 | 3134 ft | 186 kts | 267° |
| 2026-05-05 19:57 | 40.48261 | -80.08701 | 2894 ft | 175 kts | 268° |
| 2026-05-05 19:57 | 40.48288 | -80.09724 | 2748 ft | 164 kts | 268° |
| 2026-05-05 19:57 | 40.48334 | -80.11581 | 2483 ft | 142 kts | 267° |
| 2026-05-05 19:57 | 40.48367 | -80.12828 | 2252 ft | 133 kts | 267° |
| 2026-05-05 19:58 | 40.48394 | -80.14040 | 2087 ft | 132 kts | 267° |
| 2026-05-05 19:58 | 40.48410 | -80.15243 | 1967 ft | 132 kts | 270° |
| 2026-05-05 19:58 | 40.48447 | -80.16451 | 1816 ft | 132 kts | 269° |
| 2026-05-05 19:58 | 40.48479 | -80.17663 | 1648 ft | 132 kts | 269° |
| 2026-05-05 19:59 | 40.48506 | -80.18860 | 1450 ft | 131 kts | 271° |
| 2026-05-05 19:59 | 40.48543 | -80.20061 | 1303 ft | 130 kts | 271° |
| 2026-05-05 19:59 | 40.48571 | -80.21232 | 1158 ft | 128 kts | 272° |
| 2026-05-05 19:59 | 40.48606 | -80.22396 | 1228 ft | 131 kts | 272° |
| 2026-05-05 20:00 | 40.48665 | -80.23599 | 1777 ft | 134 kts | 272° |
| 2026-05-05 20:00 | 40.48748 | -80.24834 | 2401 ft | 142 kts | 270° |
| 2026-05-05 20:00 | 40.48846 | -80.26122 | 3095 ft | 148 kts | 269° |
| 2026-05-05 20:00 | 40.48958 | -80.27512 | 3617 ft | 162 kts | 270° |